Main page
METAR-TAF:

METAR-TAF

Airports :

Aydın, Turkey

Aydın Airport

latitude: 37-48-54N, longitude: 27-53-21E, elevation: 31 m

Current weather observation

The report was made 8 hours and 26 minutes ago, at 14:50 UTC
Wind 5 kt from the East
Temperature 9°C
Humidity 49%
Pressure 1018 hPa
Visibility 10 km or more
no clouds below 1500 m and no cumulonimbus

METAR: LTBD 191450Z 10005KT CAVOK 09/M01 Q1018

Time: 02:16 (23:16 UTC)

Forecast

The report was made 9 hours and 36 minutes ago, at 13:40 UTC
Forecast valid from 19 at 15 UTC to 19 at 24 UTC
Wind 2 kt from variable directions
Visibility 10 km or more
no clouds below 1500 m and no cumulonimbus

TAF: LTBD 191340Z 1915/1924 VRB02KT CAVOK

Weather observations and forecasts of more than 4000 airports (METAR and TAF reports).

The available stations are represented by yellow and red dots on the map.

Hover mouse over dot to see the name of the station.

Then click to see weather observations and forecasts.

To change the map : click on the green buttons with a black cross to zoom in, on the green button with a dash to zoom out, or on the green arrows for adjacent maps.


METAR-TAF: